メインページ
METAR-TAF:

METAR-TAF

空港 :

ダラス・フォートワース国際空港

ダラス / フォートワース, テキサス州, アメリカ合衆国

緯度: 32-53-49N, 経度: 097-01-19W, 海抜: 183m

現時点の気象観測

当レポートは15分前の18:53(UTC)に作成
南/南東の風 10kt
気温 31°C
湿度 59%
気圧 1013 hPa
視程: 16.1km
高度3800ftの雲はほとんどない
高度18000ftの雲は散在している
高度25000ftの千切れ雲あり

METAR: KDFW 201853Z 15010KT 10SM FEW038 SCT180 BKN250 31/22 A2992 RMK AO2 SLP122 VIRGA NE-SE T03060217 $

時間: 14:08 (19:08 UTC)

予報

当レポートは1時間28分前の17:40(UTC)に作成
予報は20日の 18時(UTC)から 21日の 24時(UTC)まで有効
の風 10kt
視程: 10km
高度3500ftの雲は散在している
高度25000ftの千切れ雲あり
20日の 2100時(UTC)から
の風 12kt
視程: 10km
高度5000ftの雲は散在している
高度25000ftの千切れ雲あり
近辺でにわか雨
21日の 0100時(UTC)から
南/南東の風 10kt
視程: 10km
高度6000ftの雲は散在している
高度12000ftの千切れ雲あり
21日の 1400時(UTC)から
の風 12kt
視程: 10km
高度4000ftの千切れ雲あり
近辺でにわか雨
21日の 1800時(UTC)から
の風 12kt
視程: 10km
高度4500ftの千切れ雲あり, 積乱雲.
弱いにわか雨, 近辺で激しい雷雨
21日の 2100時(UTC)から
の風 12kt
視程: 8.0km
高度4000ftの千切れ雲あり, 積乱雲.
激しい雷雨, 小雨

TAF: KDFW 201740Z 2018/2124 17010KT P6SM SCT035 BKN250 FM202100 17012KT P6SM VCSH SCT050 BKN250 FM210100 16010KT P6SM SCT060 BKN120 FM211400 17012KT P6SM VCSH BKN040 FM211800 17012KT P6SM -SHRA VCTS BKN045CB FM212100 17012KT 5SM -TSRA BKN040CB

4,000以上の空港の気象観測と天気予報(METAR報とTAF報)

利用可能な観測所は地図上に黄色い丸と赤い丸で示す。

丸の上にカーソルを重ねると観測所名を参照できる。

次にクリックすると気象観測と天気予報を参照できる。

マップの切り替え:黒色「×」印の緑ボタンをクリックして拡大、「-」印の緑ボタンをクリックして縮小、緑色の三角印をクリックして隣りの地図に切り替え


METAR-TAF: